createdAt,value
2018-10-07T00:01:16.765Z,100765.38
2018-10-07T00:03:45.314Z,100778.41
2018-10-07T00:06:14.028Z,100788.48
2018-10-07T00:08:42.508Z,100795.00
2018-10-07T00:11:10.961Z,100798.98
2018-10-07T00:13:39.646Z,100814.44
2018-10-07T00:16:08.138Z,100830.84
2018-10-07T00:18:36.648Z,100834.89
2018-10-07T00:21:05.109Z,100844.33
2018-10-07T00:23:33.617Z,100860.84
2018-10-07T00:26:02.068Z,100867.98
2018-10-07T00:28:30.473Z,100881.29
2018-10-07T00:30:58.845Z,100897.58
2018-10-07T00:33:27.249Z,100902.93
2018-10-07T00:35:55.662Z,100904.61
2018-10-07T00:38:24.061Z,100918.22
2018-10-07T00:40:52.645Z,100920.91
2018-10-07T00:43:20.993Z,100922.73
2018-10-07T00:45:49.344Z,100919.73
2018-10-07T00:48:17.699Z,100920.19
2018-10-07T00:50:46.181Z,100917.00
2018-10-07T00:53:14.557Z,100926.31
2018-10-07T00:55:42.895Z,100928.52
2018-10-07T00:58:11.349Z,100937.58
2018-10-07T01:00:39.784Z,100946.49
2018-10-07T01:03:08.145Z,100939.32
2018-10-07T01:05:36.685Z,100937.56
2018-10-07T01:08:04.972Z,100951.51
2018-10-07T01:10:33.543Z,100960.42
2018-10-07T01:13:01.959Z,100956.15
2018-10-07T01:15:30.296Z,100953.89
2018-10-07T01:17:58.675Z,100956.88
2018-10-07T01:20:27.126Z,100961.63
2018-10-07T01:22:56.228Z,100965.33
2018-10-07T01:25:24.606Z,100970.05
2018-10-07T01:27:52.994Z,100974.97
2018-10-07T01:30:23.124Z,100978.28
2018-10-07T01:32:52.977Z,100977.31
2018-10-07T01:35:21.350Z,101006.09
2018-10-07T01:37:49.878Z,101010.73
2018-10-07T01:40:18.325Z,101025.34
2018-10-07T01:42:46.743Z,101032.08
2018-10-07T01:45:15.161Z,101036.58
2018-10-07T01:47:43.511Z,101046.79
2018-10-07T01:50:11.854Z,101052.42
2018-10-07T01:52:40.269Z,101063.45
2018-10-07T01:55:08.645Z,101073.17
2018-10-07T01:57:37.034Z,101076.66
2018-10-07T02:00:05.420Z,101071.66
2018-10-07T02:02:33.918Z,101078.67
2018-10-07T02:05:02.357Z,101094.44
2018-10-07T02:07:30.735Z,101092.48
2018-10-07T02:09:59.134Z,101108.75
2018-10-07T02:15:27.774Z,101110.80
2018-10-07T02:17:58.197Z,101116.42
2018-10-07T02:21:08.736Z,101124.77
2018-10-07T02:24:08.833Z,101129.72
2018-10-07T02:26:48.171Z,101137.43
2018-10-07T02:30:00.054Z,101135.25
2018-10-07T02:32:45.877Z,101136.31
2018-10-07T02:35:25.291Z,101143.31
2018-10-07T02:38:15.053Z,101152.89
2018-10-07T02:41:03.857Z,101167.75
2018-10-07T02:44:06.795Z,101176.48
2018-10-07T02:47:04.001Z,101186.94
2018-10-07T02:49:49.649Z,101192.93
2018-10-07T02:52:35.883Z,101207.27
2018-10-07T02:58:01.075Z,101218.34
2018-10-07T03:00:56.864Z,101234.48
2018-10-07T03:06:28.734Z,101242.68
2018-10-07T03:09:23.860Z,101249.41
2018-10-07T03:12:08.056Z,101258.00
2018-10-07T03:14:53.703Z,101263.37
2018-10-07T03:17:40.316Z,101261.06
2018-10-07T03:23:16.143Z,101282.50
2018-10-07T03:26:02.632Z,101288.20
2018-10-07T03:28:45.574Z,101289.50
2018-10-07T03:34:44.428Z,101307.79
2018-10-07T03:37:34.610Z,101297.73
2018-10-07T03:40:23.519Z,101300.58
2018-10-07T03:43:13.241Z,101301.20
2018-10-07T03:46:00.163Z,101301.62
2018-10-07T03:48:50.936Z,101307.72
2018-10-07T03:54:38.530Z,101317.51
2018-10-07T03:57:28.144Z,101327.66
2018-10-07T04:03:21.229Z,101331.72
2018-10-07T04:06:18.568Z,101333.27
2018-10-07T04:09:05.357Z,101336.00
2018-10-07T04:11:54.168Z,101331.00
2018-10-07T04:14:52.357Z,101329.47
2018-10-07T04:17:42.887Z,101335.27
2018-10-07T04:20:35.178Z,101341.67
2018-10-07T04:23:25.783Z,101341.66
2018-10-07T04:26:16.788Z,101346.53
2018-10-07T04:29:08.632Z,101351.19
2018-10-07T04:32:05.765Z,101361.75
2018-10-07T04:35:01.295Z,101365.41
2018-10-07T04:37:57.344Z,101367.54
2018-10-07T04:40:52.999Z,101377.39
2018-10-07T04:43:56.085Z,101391.91
2018-10-07T04:46:58.115Z,101408.77
2018-10-07T04:49:56.979Z,101405.42
2018-10-07T04:55:53.942Z,101413.81
2018-10-07T04:58:52.170Z,101414.83
2018-10-07T05:18:42.053Z,101440.97
2018-10-07T05:21:14.203Z,101434.76
2018-10-07T05:23:42.680Z,101439.97
2018-10-07T05:26:11.385Z,101449.09
2018-10-07T05:28:41.905Z,101452.12
2018-10-07T05:33:54.356Z,101469.10
2018-10-07T05:36:24.719Z,101475.28
2018-10-07T05:38:58.231Z,101485.09
2018-10-07T05:41:26.905Z,101495.73
2018-10-07T05:43:55.544Z,101494.78
2018-10-07T05:49:27.655Z,101507.16
2018-10-07T05:52:05.583Z,101508.06
2018-10-07T05:54:34.931Z,101516.28
2018-10-07T05:57:25.319Z,101517.07
2018-10-07T06:02:10.212Z,101527.94
2018-10-07T06:04:45.264Z,101539.31
2018-10-07T06:07:16.033Z,101546.09
2018-10-07T06:09:49.750Z,101552.66
2018-10-07T06:12:21.021Z,101553.83
2018-10-07T06:42:56.097Z,101608.16
2018-10-07T06:45:24.516Z,101611.27
2018-10-07T06:47:58.887Z,101614.72
2018-10-07T06:50:31.192Z,101616.64
2018-10-07T06:53:02.166Z,101614.34
2018-10-07T06:55:36.816Z,101624.89
2018-10-07T06:58:10.777Z,101636.04
2018-10-07T07:00:39.197Z,101639.18
2018-10-07T07:03:07.764Z,101648.25
2018-10-07T07:05:36.070Z,101640.03
2018-10-07T07:08:10.965Z,101645.58
2018-10-07T07:10:39.292Z,101646.92
2018-10-07T07:15:44.143Z,101656.02
2018-10-07T07:18:12.600Z,101659.11
2018-10-07T07:20:41.144Z,101660.47
2018-10-07T07:23:16.802Z,101659.25
2018-10-07T07:25:53.374Z,101672.19
2018-10-07T07:28:28.948Z,101675.27
2018-10-07T07:31:08.090Z,101676.98
2018-10-07T07:33:36.542Z,101681.89
2018-10-07T07:36:19.004Z,101689.95
2018-10-07T07:39:03.677Z,101695.83
2018-10-07T08:05:37.520Z,101735.98
2018-10-07T08:08:09.678Z,101738.85
2018-10-07T08:10:48.963Z,101744.30
2018-10-07T08:13:27.420Z,101746.05
2018-10-07T08:19:01.298Z,101767.47
2018-10-07T08:24:23.585Z,101772.66
2018-10-07T08:27:02.801Z,101771.60
2018-10-07T08:29:34.387Z,101783.77
2018-10-07T08:32:02.952Z,101778.66
2018-10-07T08:37:31.222Z,101785.13
2018-10-07T08:40:15.220Z,101790.64
2018-10-07T08:45:21.692Z,101800.31
2018-10-07T08:47:58.415Z,101807.67
2018-10-07T08:53:26.973Z,101817.05
2018-10-07T08:58:42.449Z,101820.47
2018-10-07T09:01:10.954Z,101821.41
2018-10-07T09:03:52.008Z,101822.34
2018-10-07T09:55:02.334Z,101861.38
2018-10-07T09:57:36.722Z,101869.95
2018-10-07T11:03:25.255Z,101873.13
2018-10-07T11:06:22.295Z,101871.33
2018-10-07T11:09:28.464Z,101887.09
2018-10-07T11:12:17.615Z,101887.38
2018-10-07T11:15:19.323Z,101878.67
2018-10-07T11:27:10.273Z,101896.12
2018-10-07T11:30:17.580Z,101903.95
2018-10-07T11:36:33.316Z,101903.66
2018-10-07T11:46:10.714Z,101899.56
2018-10-07T12:01:28.638Z,101905.00
2018-10-07T12:04:25.786Z,101905.30
2018-10-07T13:45:06.889Z,102008.27
2018-10-07T15:40:01.771Z,102052.70
2018-10-07T15:42:34.203Z,102056.40
2018-10-07T15:45:06.543Z,102051.08
2018-10-07T15:47:42.502Z,102056.06
2018-10-07T15:50:16.916Z,102056.97
2018-10-07T15:52:51.744Z,102056.28
2018-10-07T15:55:20.556Z,102067.34
2018-10-07T15:57:49.340Z,102068.59
2018-10-07T16:00:18.241Z,102076.22
2018-10-07T16:02:46.999Z,102077.34
2018-10-07T16:05:15.769Z,102085.34
2018-10-07T16:07:44.387Z,102084.53
2018-10-07T16:10:20.510Z,102083.11
2018-10-07T16:13:00.290Z,102085.89
2018-10-07T16:15:34.657Z,102086.10
2018-10-07T16:18:14.083Z,102095.58
2018-10-07T16:20:49.774Z,102092.65
2018-10-07T16:23:21.281Z,102099.50
2018-10-07T16:28:54.107Z,102102.89
2018-10-07T16:31:23.141Z,102101.06
2018-10-07T16:33:52.256Z,102101.79
2018-10-07T16:36:27.970Z,102109.66
2018-10-07T16:38:57.206Z,102106.19
2018-10-07T16:41:26.239Z,102101.48
2018-10-07T16:43:55.012Z,102101.59
2018-10-07T16:46:31.678Z,102100.97
2018-10-07T16:49:01.317Z,102109.87
2018-10-07T16:51:36.442Z,102102.62
2018-10-07T16:54:17.259Z,102106.59
2018-10-07T16:56:52.516Z,102112.00
2018-10-07T16:59:23.591Z,102109.86
2018-10-07T17:01:55.822Z,102111.91
2018-10-07T17:09:48.289Z,102121.10
2018-10-07T17:12:17.031Z,102117.33
2018-10-07T17:14:45.978Z,102123.53
2018-10-07T17:17:14.829Z,102126.09
2018-10-07T17:19:46.939Z,102128.23
2018-10-07T17:22:15.682Z,102134.98
2018-10-07T17:24:44.221Z,102133.65
2018-10-07T17:29:53.873Z,102140.66
2018-10-07T17:32:27.305Z,102142.36
2018-10-07T17:34:56.137Z,102147.43
2018-10-07T17:37:24.753Z,102149.16
2018-10-07T17:39:53.338Z,102146.91
2018-10-07T17:42:22.002Z,102156.20
2018-10-07T17:44:50.625Z,102159.57
2018-10-07T17:47:19.438Z,102154.77
2018-10-07T17:49:48.100Z,102155.58
2018-10-07T17:52:16.667Z,102163.03
2018-10-07T17:54:48.077Z,102163.23
2018-10-07T17:57:16.826Z,102168.13
2018-10-07T17:59:45.416Z,102168.02
2018-10-07T18:02:14.289Z,102173.43
2018-10-07T18:04:43.074Z,102175.31
2018-10-07T18:07:11.740Z,102185.72
2018-10-07T18:09:40.528Z,102177.77
2018-10-07T18:12:09.547Z,102188.06
2018-10-07T18:14:38.240Z,102186.33
2018-10-07T18:17:06.869Z,102194.17
2018-10-07T18:19:35.703Z,102197.59
2018-10-07T18:22:04.782Z,102199.93
2018-10-07T18:24:33.995Z,102196.86
2018-10-07T18:27:02.971Z,102201.63
2018-10-07T18:29:31.993Z,102216.02
2018-10-07T18:32:00.792Z,102221.20
2018-10-07T18:34:29.868Z,102221.41
2018-10-07T18:36:58.704Z,102217.53
2018-10-07T18:39:27.517Z,102212.04
2018-10-07T18:41:56.406Z,102215.51
2018-10-07T18:44:25.375Z,102209.87
2018-10-07T18:46:54.310Z,102213.14
2018-10-07T18:49:23.410Z,102210.09
2018-10-07T18:51:52.653Z,102205.81
2018-10-07T18:57:30.187Z,102214.66
2018-10-07T19:06:26.861Z,102213.89
2018-10-07T19:08:56.051Z,102217.67
2018-10-07T19:11:25.650Z,102218.57
2018-10-07T19:13:55.256Z,102221.03
2018-10-07T19:16:24.555Z,102216.52
2018-10-07T19:18:53.968Z,102224.34
2018-10-07T19:21:23.352Z,102224.34
2018-10-07T19:23:52.615Z,102233.92
2018-10-07T19:26:29.985Z,102237.20
2018-10-07T19:29:11.579Z,102244.92
2018-10-07T19:31:41.192Z,102239.20
2018-10-07T19:47:09.117Z,102245.19
2018-10-07T20:21:30.913Z,102252.23
2018-10-07T20:24:00.764Z,102245.23
2018-10-07T20:26:30.552Z,102251.34
2018-10-07T20:29:00.383Z,102244.41
2018-10-07T20:31:31.033Z,102241.40
2018-10-07T20:34:00.345Z,102238.92
2018-10-07T20:36:29.899Z,102240.44
2018-10-07T20:39:05.614Z,102236.47
2018-10-07T20:41:35.004Z,102233.32
2018-10-07T20:44:04.151Z,102225.64
2018-10-07T20:46:33.323Z,102223.55
2018-10-07T20:52:20.186Z,102222.59
2018-10-07T20:54:49.399Z,102223.56
2018-10-07T20:57:18.268Z,102217.27
2018-10-07T20:59:55.355Z,102216.80
2018-10-07T21:02:24.408Z,102220.58
2018-10-07T21:04:53.083Z,102224.36
2018-10-07T21:07:22.247Z,102219.77
2018-10-07T21:09:52.743Z,102223.86
2018-10-07T21:12:22.140Z,102227.01
2018-10-07T21:14:51.001Z,102225.81
2018-10-07T21:17:25.997Z,102218.92
2018-10-07T21:19:58.517Z,102215.27
2018-10-07T21:22:27.963Z,102208.09
2018-10-07T21:25:01.576Z,102205.95
2018-10-07T21:27:30.652Z,102207.64
2018-10-07T21:29:59.264Z,102211.01
2018-10-07T21:32:28.214Z,102207.80
2018-10-07T21:34:56.862Z,102198.73
2018-10-07T21:37:25.827Z,102194.70
2018-10-07T21:39:54.731Z,102195.59
2018-10-07T21:42:23.468Z,102191.38
2018-10-07T21:44:59.239Z,102183.44
2018-10-07T21:47:27.914Z,102189.48
2018-10-07T21:49:56.433Z,102181.17
2018-10-07T21:52:25.003Z,102188.47
2018-10-07T21:54:59.906Z,102182.55
2018-10-07T21:57:34.872Z,102179.81
2018-10-07T22:00:03.612Z,102182.57
2018-10-07T22:02:32.336Z,102183.92
2018-10-07T22:05:00.835Z,102182.15
2018-10-07T22:07:29.252Z,102188.05
2018-10-07T22:09:57.722Z,102182.14
2018-10-07T22:12:26.093Z,102186.98
2018-10-07T22:14:54.505Z,102184.03
2018-10-07T22:17:22.963Z,102183.45
2018-10-07T22:19:51.705Z,102187.61
2018-10-07T22:22:20.055Z,102194.22
2018-10-07T22:24:54.897Z,102198.50
2018-10-07T22:27:23.531Z,102205.48
2018-10-07T22:29:51.980Z,102195.47
2018-10-07T22:32:20.650Z,102194.80
2018-10-07T22:34:49.024Z,102198.00
2018-10-07T22:39:56.616Z,102204.69
2018-10-07T22:42:25.001Z,102206.83
2018-10-07T22:47:26.788Z,102212.84
2018-10-07T22:49:55.276Z,102219.08
2018-10-07T22:52:24.019Z,102216.64
2018-10-07T22:54:52.543Z,102208.45
2018-10-07T22:57:20.891Z,102203.16
2018-10-07T22:59:49.289Z,102215.23
2018-10-07T23:02:17.772Z,102213.27
2018-10-07T23:07:25.722Z,102215.17
2018-10-07T23:09:54.140Z,102212.75
2018-10-07T23:12:25.572Z,102211.80
2018-10-07T23:14:54.287Z,102215.89
2018-10-07T23:19:56.977Z,102222.98
2018-10-07T23:22:25.317Z,102211.89
2018-10-07T23:25:02.070Z,102213.98
2018-10-07T23:27:30.905Z,102203.97
2018-10-07T23:29:59.365Z,102211.92
2018-10-07T23:32:28.560Z,102210.78
2018-10-07T23:35:09.495Z,102208.91
2018-10-07T23:37:43.793Z,102211.19
2018-10-07T23:40:12.206Z,102213.60
2018-10-07T23:42:41.753Z,102211.15
2018-10-07T23:45:10.207Z,102213.68
2018-10-07T23:47:40.600Z,102219.98
2018-10-07T23:50:08.960Z,102218.34
2018-10-07T23:52:37.276Z,102212.47
2018-10-07T23:55:05.644Z,102207.94
2018-10-07T23:57:39.433Z,102213.71
